createdAt,value
2023-05-02T00:00:17.281Z,100118.53
2023-05-02T00:03:20.652Z,100116.66
2023-05-02T00:06:22.780Z,100107.75
2023-05-02T00:09:24.785Z,100117.41
2023-05-02T00:12:26.408Z,100111.19
2023-05-02T00:15:28.119Z,100113.00
2023-05-02T00:18:31.132Z,100123.59
2023-05-02T00:21:32.956Z,100119.25
2023-05-02T00:24:34.838Z,100119.28
2023-05-02T00:27:36.422Z,100120.25
2023-05-02T00:30:42.722Z,100114.94
2023-05-02T00:33:45.705Z,100114.09
2023-05-02T00:36:48.184Z,100121.25
2023-05-02T00:39:50.054Z,100116.84
2023-05-02T00:42:51.693Z,100132.84
2023-05-02T00:45:53.562Z,100122.22
2023-05-02T00:48:56.562Z,100123.03
2023-05-02T00:51:58.791Z,100117.81
2023-05-02T00:55:01.997Z,100111.59
2023-05-02T00:58:05.613Z,100107.31
2023-05-02T01:01:20.979Z,100117.03
2023-05-02T01:04:35.250Z,100120.59
2023-05-02T01:08:04.421Z,100121.50
2023-05-02T01:11:14.424Z,100120.63
2023-05-02T01:14:17.169Z,100121.56
2023-05-02T01:17:22.972Z,100119.75
2023-05-02T01:20:28.493Z,100119.75
2023-05-02T01:23:38.112Z,100121.53
2023-05-02T01:26:45.799Z,100125.09
2023-05-02T01:29:50.763Z,100113.63
2023-05-02T01:32:55.280Z,100117.19
2023-05-02T01:35:57.895Z,100107.47
2023-05-02T01:39:02.486Z,100107.53
2023-05-02T01:42:05.393Z,100105.78
2023-05-02T01:45:10.852Z,100103.16
2023-05-02T01:48:13.574Z,100108.47
2023-05-02T01:51:18.069Z,100106.69
2023-05-02T01:54:23.083Z,100117.41
2023-05-02T01:57:25.392Z,100099.72
2023-05-02T02:00:30.671Z,100097.03
2023-05-02T02:03:32.378Z,100101.50
2023-05-02T02:06:34.338Z,100098.00
2023-05-02T02:09:36.317Z,100104.25
2023-05-02T02:12:41.619Z,100101.59
2023-05-02T02:15:47.751Z,100091.88
2023-05-02T02:18:49.380Z,100095.44
2023-05-02T02:21:54.283Z,100094.56
2023-05-02T02:24:57.752Z,100082.19
2023-05-02T02:28:00.205Z,100091.06
2023-05-02T02:31:03.600Z,100072.53
2023-05-02T02:34:06.191Z,100072.50
2023-05-02T02:37:14.685Z,100096.34
2023-05-02T02:40:21.853Z,100078.69
2023-05-02T02:43:32.956Z,100074.25
2023-05-02T02:46:46.860Z,100088.38
2023-05-02T02:49:55.207Z,100076.91
2023-05-02T02:53:02.395Z,100086.63
2023-05-02T02:56:07.004Z,100076.03
2023-05-02T02:59:14.661Z,100080.44
2023-05-02T03:02:19.423Z,100077.81
2023-05-02T03:05:22.326Z,100083.09
2023-05-02T03:08:24.343Z,100085.75
2023-05-02T03:11:27.634Z,100082.25
2023-05-02T03:14:30.037Z,100077.84
2023-05-02T03:17:33.043Z,100074.31
2023-05-02T03:20:34.704Z,100079.63
2023-05-02T03:23:36.932Z,100081.38
2023-05-02T03:26:38.838Z,100079.63
2023-05-02T03:29:40.652Z,100084.03
2023-05-02T03:32:43.776Z,100082.25
2023-05-02T03:35:45.421Z,100082.28
2023-05-02T03:38:47.265Z,100077.88
2023-05-02T03:41:48.838Z,100085.78
2023-05-02T03:44:52.509Z,100083.16
2023-05-02T03:47:55.392Z,100099.06
2023-05-02T03:50:57.073Z,100092.84
2023-05-02T03:54:00.754Z,100091.94
2023-05-02T03:57:02.480Z,100097.19
2023-05-02T04:00:04.986Z,100100.72
2023-05-02T04:03:08.097Z,100102.47
2023-05-02T04:06:10.050Z,100098.94
2023-05-02T04:09:11.739Z,100109.47
2023-05-02T04:12:16.221Z,100109.50
2023-05-02T04:15:18.095Z,100111.25
2023-05-02T04:18:21.165Z,100114.78
2023-05-02T04:21:22.780Z,100120.09
2023-05-02T04:24:24.987Z,100110.34
2023-05-02T04:27:27.027Z,100113.88
2023-05-02T04:30:28.796Z,100116.53
2023-05-02T04:33:31.803Z,100115.59
2023-05-02T04:36:33.461Z,100107.63
2023-05-02T04:39:35.262Z,100119.06
2023-05-02T04:42:37.117Z,100125.22
2023-05-02T04:45:38.764Z,100124.25
2023-05-02T04:48:41.787Z,100130.34
2023-05-02T04:51:44.763Z,100135.66
2023-05-02T04:54:46.634Z,100132.91
2023-05-02T04:57:48.601Z,100134.56
2023-05-02T05:00:50.834Z,100141.53
2023-05-02T05:03:53.936Z,100138.72
2023-05-02T05:06:56.282Z,100147.44
2023-05-02T05:09:58.250Z,100139.31
2023-05-02T05:13:00.052Z,100144.41
2023-05-02T05:16:01.685Z,100141.63
2023-05-02T05:19:04.686Z,100137.97
2023-05-02T05:22:06.301Z,100144.91
2023-05-02T05:25:08.698Z,100159.06
2023-05-02T05:28:10.355Z,100160.84
2023-05-02T05:31:16.026Z,100159.09
2023-05-02T05:34:19.750Z,100160.91
2023-05-02T05:37:21.566Z,100170.81
2023-05-02T05:40:23.531Z,100158.53
2023-05-02T05:43:25.313Z,100179.75
2023-05-02T05:46:26.957Z,100171.91
2023-05-02T05:49:30.248Z,100176.38
2023-05-02T05:52:32.372Z,100179.81
2023-05-02T05:55:35.852Z,100173.50
2023-05-02T05:58:39.584Z,100182.28
2023-05-02T06:01:41.446Z,100184.78
2023-05-02T06:04:44.482Z,100187.34
2023-05-02T06:07:46.188Z,100188.16
2023-05-02T06:10:47.900Z,100189.84
2023-05-02T06:13:49.501Z,100187.91
2023-05-02T06:16:51.125Z,100183.28
2023-05-02T06:19:54.090Z,100182.75
2023-05-02T06:22:55.999Z,100182.56
2023-05-02T06:25:59.807Z,100185.88
2023-05-02T06:29:01.392Z,100192.75
2023-05-02T06:32:03.194Z,100191.31
2023-05-02T06:35:07.091Z,100188.34
2023-05-02T06:38:09.013Z,100187.88
2023-05-02T06:41:13.717Z,100198.16
2023-05-02T06:44:16.170Z,100192.56
2023-05-02T06:47:17.903Z,100190.44
2023-05-02T06:50:21.032Z,100192.94
2023-05-02T06:53:22.828Z,100194.59
2023-05-02T06:56:25.474Z,100181.88
2023-05-02T06:59:27.514Z,100194.75
2023-05-02T07:02:29.331Z,100187.50
2023-05-02T07:05:32.359Z,100192.38
2023-05-02T07:08:34.161Z,100184.78
2023-05-02T07:11:35.813Z,100199.56
2023-05-02T07:14:37.796Z,100197.69
2023-05-02T07:17:39.810Z,100192.00
2023-05-02T07:20:43.105Z,100201.22
2023-05-02T07:23:45.089Z,100198.53
2023-05-02T07:26:47.458Z,100200.06
2023-05-02T07:29:49.117Z,100202.38
2023-05-02T07:32:50.875Z,100201.84
2023-05-02T07:35:55.707Z,100202.53
2023-05-02T07:38:57.616Z,100204.53
2023-05-02T07:41:59.285Z,100217.47
2023-05-02T07:45:00.967Z,100214.38
2023-05-02T07:48:02.690Z,100209.88
2023-05-02T07:51:09.643Z,100221.66
2023-05-02T07:54:17.596Z,100216.50
2023-05-02T07:57:19.339Z,100218.53
2023-05-02T08:00:21.176Z,100213.94
2023-05-02T08:03:23.060Z,100212.03
2023-05-02T08:06:26.252Z,100207.56
2023-05-02T08:09:27.929Z,100203.72
2023-05-02T08:12:29.586Z,100207.34
2023-05-02T08:15:31.237Z,100201.81
2023-05-02T08:18:32.861Z,100204.13
2023-05-02T08:21:35.893Z,100207.06
2023-05-02T08:24:37.636Z,100207.41
2023-05-02T08:27:39.272Z,100201.94
2023-05-02T08:30:41.215Z,100209.63
2023-05-02T08:33:43.227Z,100212.84
2023-05-02T08:36:46.931Z,100203.41
2023-05-02T08:39:48.548Z,100204.28
2023-05-02T08:42:52.003Z,100197.59
2023-05-02T08:45:58.672Z,100195.72
2023-05-02T08:49:01.171Z,100205.81
2023-05-02T08:52:05.496Z,100202.09
2023-05-02T08:55:07.825Z,100210.13
2023-05-02T08:58:09.931Z,100219.75
2023-05-02T09:01:16.319Z,100210.31
2023-05-02T09:04:21.886Z,100212.06
2023-05-02T09:07:25.239Z,100216.50
2023-05-02T09:10:28.924Z,100211.63
2023-05-02T09:13:35.892Z,100207.63
2023-05-02T09:16:39.314Z,100208.41
2023-05-02T09:19:41.423Z,100208.34
2023-05-02T09:22:50.361Z,100197.84
2023-05-02T09:25:52.082Z,100207.91
2023-05-02T09:28:55.696Z,100211.22
2023-05-02T09:31:57.696Z,100215.72
2023-05-02T09:35:05.688Z,100214.56
2023-05-02T09:38:19.793Z,100210.00
2023-05-02T09:41:21.670Z,100211.38
2023-05-02T09:44:24.703Z,100200.59
2023-05-02T09:47:26.568Z,100203.28
2023-05-02T09:50:35.737Z,100193.47
2023-05-02T09:53:43.969Z,100200.06
2023-05-02T09:56:55.537Z,100191.75
2023-05-02T09:59:58.384Z,100196.63
2023-05-02T10:03:00.437Z,100178.03
2023-05-02T10:06:02.957Z,100173.47
2023-05-02T10:09:06.454Z,100171.22
2023-05-02T10:12:08.571Z,100171.22
2023-05-02T10:15:13.730Z,100162.97
2023-05-02T10:18:25.248Z,100157.16
2023-05-02T10:21:27.488Z,100151.09
2023-05-02T10:24:32.393Z,100153.94
2023-05-02T10:27:34.106Z,100142.19
2023-05-02T10:30:36.126Z,100138.81
2023-05-02T10:33:38.867Z,100140.47
2023-05-02T10:36:40.530Z,100140.47
2023-05-02T10:39:43.878Z,100135.03
2023-05-02T10:42:47.821Z,100129.22
2023-05-02T10:45:49.669Z,100136.25
2023-05-02T10:49:01.240Z,100139.03
2023-05-02T10:52:28.971Z,100130.44
2023-05-02T10:55:32.357Z,100128.53
2023-05-02T10:58:34.021Z,100107.19
2023-05-02T11:01:36.089Z,100119.00
2023-05-02T11:05:00.518Z,100121.78
2023-05-02T11:08:30.325Z,100117.22
2023-05-02T11:11:43.824Z,100120.91
2023-05-02T11:14:49.293Z,100115.25
2023-05-02T11:18:00.730Z,100117.31
2023-05-02T11:21:28.531Z,100116.19
2023-05-02T11:24:40.282Z,100104.75
2023-05-02T11:27:43.674Z,100119.84
2023-05-02T11:30:45.637Z,100114.69
2023-05-02T11:33:56.060Z,100112.31
2023-05-02T11:36:57.682Z,100111.88
2023-05-02T11:40:10.753Z,100116.16
2023-05-02T11:43:14.889Z,100116.78
2023-05-02T11:46:16.890Z,100099.47
2023-05-02T11:49:18.952Z,100106.97
2023-05-02T11:52:20.657Z,100101.69
2023-05-02T11:55:22.521Z,100107.91
2023-05-02T11:58:27.838Z,100108.41
2023-05-02T12:01:30.911Z,100094.53
2023-05-02T12:04:42.549Z,100100.13
2023-05-02T12:07:45.325Z,100103.84
2023-05-02T12:10:47.003Z,100094.81
2023-05-02T12:13:50.792Z,100098.75
2023-05-02T12:16:52.875Z,100107.34
2023-05-02T12:19:55.079Z,100103.88
2023-05-02T12:22:57.366Z,100099.38
2023-05-02T12:25:59.388Z,100106.88
2023-05-02T12:29:02.419Z,100102.41
2023-05-02T12:32:04.246Z,100094.47
2023-05-02T12:35:21.400Z,100107.53
2023-05-02T12:38:23.500Z,100100.47
2023-05-02T12:41:32.294Z,100094.56
2023-05-02T12:44:38.798Z,100091.00
2023-05-02T12:47:45.388Z,100092.59
2023-05-02T12:50:47.239Z,100096.44
2023-05-02T12:53:49.007Z,100102.59
2023-05-02T12:56:51.147Z,100091.25
2023-05-02T12:59:54.486Z,100097.72
2023-05-02T13:02:56.460Z,100090.59
2023-05-02T13:05:58.508Z,100094.88
2023-05-02T13:09:00.516Z,100093.88
2023-05-02T13:12:02.437Z,100084.78
2023-05-02T13:15:07.693Z,100085.84
2023-05-02T13:18:09.744Z,100079.25
2023-05-02T13:21:11.683Z,100072.31
2023-05-02T13:24:13.596Z,100073.22
2023-05-02T13:27:15.619Z,100078.19
2023-05-02T13:30:18.821Z,100072.47
2023-05-02T13:33:20.605Z,100072.81
2023-05-02T13:36:22.463Z,100074.75
2023-05-02T13:39:24.567Z,100073.94
2023-05-02T13:42:26.438Z,100075.94
2023-05-02T13:45:29.547Z,100083.88
2023-05-02T13:48:31.382Z,100073.38
2023-05-02T13:51:33.105Z,100069.13
2023-05-02T13:54:35.134Z,100077.97
2023-05-02T13:57:36.824Z,100073.88
2023-05-02T14:00:39.844Z,100065.38
2023-05-02T14:03:41.655Z,100073.97
2023-05-02T14:06:43.418Z,100067.84
2023-05-02T14:09:45.100Z,100066.66
2023-05-02T14:12:46.757Z,100067.56
2023-05-02T14:15:50.068Z,100074.59
2023-05-02T14:18:51.801Z,100067.66
2023-05-02T14:21:53.700Z,100067.41
2023-05-02T14:24:55.370Z,100067.75
2023-05-02T14:27:57.127Z,100069.66
2023-05-02T14:31:00.274Z,100066.56
2023-05-02T14:34:01.784Z,100066.97
2023-05-02T14:37:03.814Z,100075.78
2023-05-02T14:40:06.997Z,100062.50
2023-05-02T14:43:08.943Z,100066.91
2023-05-02T14:46:11.926Z,100072.31
2023-05-02T14:49:13.605Z,100066.63
2023-05-02T14:52:15.534Z,100068.63
2023-05-02T14:55:17.395Z,100072.81
2023-05-02T14:58:19.205Z,100065.41
2023-05-02T15:01:22.920Z,100059.63
2023-05-02T15:04:24.877Z,100065.66
2023-05-02T15:07:27.017Z,100070.28
2023-05-02T15:10:28.838Z,100066.44
2023-05-02T15:13:30.754Z,100066.56
2023-05-02T15:16:33.824Z,100057.56
2023-05-02T15:19:35.317Z,100060.34
2023-05-02T15:22:37.081Z,100065.97
2023-05-02T15:25:38.975Z,100060.16
2023-05-02T15:28:41.351Z,100055.38
2023-05-02T15:31:44.938Z,100062.88
2023-05-02T15:34:47.160Z,100059.91
2023-05-02T15:37:48.871Z,100056.22
2023-05-02T15:40:54.278Z,100058.19
2023-05-02T15:43:56.881Z,100053.19
2023-05-02T15:47:00.259Z,100043.53
2023-05-02T15:50:02.307Z,100058.19
2023-05-02T15:53:04.126Z,100051.66
2023-05-02T15:56:07.974Z,100051.19
2023-05-02T15:59:09.589Z,100044.47
2023-05-02T16:02:12.716Z,100051.88
2023-05-02T16:05:14.226Z,100056.00
2023-05-02T16:08:15.960Z,100059.19
2023-05-02T16:11:17.612Z,100057.19
2023-05-02T16:14:19.608Z,100054.50
2023-05-02T16:17:22.671Z,100049.69
2023-05-02T16:20:24.768Z,100031.66
2023-05-02T16:23:26.614Z,100044.16
2023-05-02T16:26:30.158Z,100051.09
2023-05-02T16:29:31.975Z,100055.53
2023-05-02T16:32:35.503Z,100049.75
2023-05-02T16:35:37.386Z,100056.66
2023-05-02T16:38:39.121Z,100057.03
2023-05-02T16:41:41.565Z,100056.75
2023-05-02T16:44:43.607Z,100061.75
2023-05-02T16:47:46.877Z,100057.97
2023-05-02T16:50:48.642Z,100054.03
2023-05-02T16:53:50.488Z,100047.44
2023-05-02T16:56:55.326Z,100047.94
2023-05-02T16:59:57.340Z,100046.69
2023-05-02T17:03:01.566Z,100039.56
2023-05-02T17:06:04.675Z,100039.94
2023-05-02T17:09:06.492Z,100049.13
2023-05-02T17:12:09.176Z,100048.66
2023-05-02T17:15:11.146Z,100056.34
2023-05-02T17:18:14.350Z,100063.94
2023-05-02T17:21:15.863Z,100062.50
2023-05-02T17:24:17.271Z,100061.97
2023-05-02T17:27:19.052Z,100068.63
2023-05-02T17:30:20.820Z,100065.31
2023-05-02T17:33:23.860Z,100061.19
2023-05-02T17:36:25.603Z,100072.03
2023-05-02T17:39:27.805Z,100075.06
2023-05-02T17:42:30.025Z,100073.63
2023-05-02T17:45:32.030Z,100073.84
2023-05-02T17:48:35.080Z,100074.25
2023-05-02T17:51:37.565Z,100074.66
2023-05-02T17:54:39.922Z,100080.50
2023-05-02T17:57:42.295Z,100083.63
2023-05-02T18:00:44.770Z,100085.81
2023-05-02T18:03:49.142Z,100094.78
2023-05-02T18:06:51.355Z,100099.00
2023-05-02T18:09:53.592Z,100093.16
2023-05-02T18:12:55.382Z,100097.94
2023-05-02T18:15:58.217Z,100101.56
2023-05-02T18:19:01.757Z,100110.09
2023-05-02T18:22:04.211Z,100122.34
2023-05-02T18:25:07.165Z,100122.63
2023-05-02T18:28:12.284Z,100121.28
2023-05-02T18:31:18.427Z,100120.44
2023-05-02T18:34:21.932Z,100127.59
2023-05-02T18:37:24.380Z,100124.34
2023-05-02T18:40:26.298Z,100136.66
2023-05-02T18:43:30.239Z,100142.50
2023-05-02T18:46:32.294Z,100144.28
2023-05-02T18:49:36.998Z,100140.97
2023-05-02T18:52:38.922Z,100162.34
2023-05-02T18:55:41.007Z,100159.22
2023-05-02T18:58:43.364Z,100160.34
2023-05-02T19:01:46.335Z,100164.69
2023-05-02T19:04:49.692Z,100169.66
2023-05-02T19:07:51.340Z,100176.19
2023-05-02T19:10:54.124Z,100175.03
2023-05-02T19:13:55.893Z,100159.63
2023-05-02T19:16:58.548Z,100180.19
2023-05-02T19:20:02.695Z,100186.59
2023-05-02T19:23:18.912Z,100187.25
2023-05-02T19:26:22.474Z,100191.31
2023-05-02T19:29:24.973Z,100191.56
2023-05-02T19:32:27.350Z,100188.91
2023-05-02T19:35:30.903Z,100196.59
2023-05-02T19:38:33.456Z,100196.81
2023-05-02T19:41:35.552Z,100198.72
2023-05-02T19:44:38.202Z,100216.25
2023-05-02T19:47:41.710Z,100216.63
2023-05-02T19:50:45.268Z,100223.84
2023-05-02T19:53:47.275Z,100233.34
2023-05-02T19:56:49.579Z,100228.28
2023-05-02T19:59:51.662Z,100218.72
2023-05-02T20:02:53.789Z,100225.47
2023-05-02T20:05:57.366Z,100216.41
2023-05-02T20:09:00.141Z,100224.59
2023-05-02T20:12:02.044Z,100225.00
2023-05-02T20:15:07.075Z,100223.44
2023-05-02T20:18:09.222Z,100221.66
2023-05-02T20:21:12.686Z,100222.41
2023-05-02T20:24:14.301Z,100213.66
2023-05-02T20:27:16.081Z,100221.75
2023-05-02T20:30:18.266Z,100222.69
2023-05-02T20:33:20.317Z,100216.75
2023-05-02T20:36:23.832Z,100222.91
2023-05-02T20:39:25.956Z,100215.94
2023-05-02T20:42:27.646Z,100219.66
2023-05-02T20:45:29.336Z,100222.56
2023-05-02T20:48:32.821Z,100216.28
2023-05-02T20:51:37.840Z,100213.38
2023-05-02T20:54:39.630Z,100223.34
2023-05-02T20:57:41.429Z,100213.47
2023-05-02T21:00:43.328Z,100212.78
2023-05-02T21:03:45.043Z,100215.47
2023-05-02T21:06:48.395Z,100213.63
2023-05-02T21:09:49.916Z,100219.16
2023-05-02T21:12:51.571Z,100210.38
2023-05-02T21:15:53.502Z,100213.00
2023-05-02T21:18:55.207Z,100227.25
2023-05-02T21:21:58.189Z,100227.22
2023-05-02T21:24:59.872Z,100227.13
2023-05-02T21:28:01.574Z,100227.31
2023-05-02T21:31:03.488Z,100249.44
2023-05-02T21:34:05.244Z,100225.97
2023-05-02T21:37:08.342Z,100260.56
2023-05-02T21:40:11.120Z,100274.09
2023-05-02T21:43:12.766Z,100281.47
2023-05-02T21:46:14.603Z,100288.72
2023-05-02T21:49:16.313Z,100285.22
2023-05-02T21:52:19.313Z,100288.81
2023-05-02T21:55:21.024Z,100281.88
2023-05-02T21:58:22.695Z,100287.44
2023-05-02T22:01:24.721Z,100284.84
2023-05-02T22:04:26.576Z,100291.50
2023-05-02T22:07:29.709Z,100292.66
2023-05-02T22:10:31.341Z,100303.53
2023-05-02T22:13:32.982Z,100306.91
2023-05-02T22:16:34.936Z,100321.09
2023-05-02T22:19:36.922Z,100327.56
2023-05-02T22:22:40.524Z,100330.38
2023-05-02T22:25:44.315Z,100329.66
2023-05-02T22:28:46.327Z,100343.78
2023-05-02T22:31:48.477Z,100335.72
2023-05-02T22:34:50.136Z,100333.03
2023-05-02T22:37:53.206Z,100332.50
2023-05-02T22:40:54.883Z,100326.41
2023-05-02T22:43:56.544Z,100317.75
2023-05-02T22:46:58.186Z,100325.78
2023-05-02T22:49:59.996Z,100330.31
2023-05-02T22:53:03.260Z,100325.94
2023-05-02T22:56:05.582Z,100334.75
2023-05-02T22:59:07.282Z,100320.66
2023-05-02T23:02:10.131Z,100324.13
2023-05-02T23:05:12.009Z,100329.66
2023-05-02T23:08:15.012Z,100329.69
2023-05-02T23:11:16.651Z,100327.91
2023-05-02T23:14:18.323Z,100326.81
2023-05-02T23:17:20.181Z,100325.22
2023-05-02T23:20:22.169Z,100320.94
2023-05-02T23:23:25.200Z,100320.91
2023-05-02T23:26:26.835Z,100322.72
2023-05-02T23:29:28.496Z,100315.44
2023-05-02T23:32:30.495Z,100318.28
2023-05-02T23:35:32.429Z,100308.47
2023-05-02T23:38:36.129Z,100288.75
2023-05-02T23:41:38.020Z,100289.91
2023-05-02T23:44:39.897Z,100287.28
2023-05-02T23:47:42.100Z,100290.94
2023-05-02T23:50:43.964Z,100303.41
2023-05-02T23:53:47.037Z,100298.97
2023-05-02T23:56:49.015Z,100289.28
2023-05-02T23:59:50.809Z,100301.63
